»·PEaware :: N2322Y KSNA-KCRQ

N2322Y :: KSNA-KCRQ

FLIGHT INFORMATION

Flight Status: Arrived
Operator: Privately registered:
United States
More flights under this callsign
Pilot: Michael B. (9434)
Aircraft: CESSNA 172 SKYHAWK
(C172)
More flights by this aircraft type
Origin: KSNA John Wayne-Orange Co
United States
Destination: KCRQ McClellan-Palomar
United States
More flights between these airports :: More routes between these airports
Route: V23 OCN
File this flight plan on PilotEdge
Remarks: I-2 RATING
Altitude:
(Current/Filed)
5,000ft
Speed:
(Current/Filed)
115kts
Departed: 08-Jan-18 06:17 PM
Arrived: 08-Jan-18 07:05 PM
Distance/Time
Traveled:
44nm/0:48
Distance/Time
To Go:
Arrived

Flight Plot

Page will automatically refresh every two minutes.


Map Options




Map Legend


Flown Route
Filed Route
Departure Airport
Arrival Airport
Navaid (VOR, NDB)
Fix

Horizontal Profiles

Position Reports

Time Latitude Longitude Heading Altitude Ground
Speed
08-Jan-18 17:54 33.676260 -117.870861 205 60ft 0kts
08-Jan-18 17:55 33.676260 -117.870861 205 60ft 0kts
08-Jan-18 17:56 33.676260 -117.870861 205 60ft 0kts
08-Jan-18 17:57 33.676260 -117.870861 205 60ft 0kts
08-Jan-18 17:58 33.676260 -117.870861 205 60ft 0kts
08-Jan-18 17:59 33.676260 -117.870861 205 60ft 0kts
08-Jan-18 18:00 33.676260 -117.870861 205 60ft 0kts
08-Jan-18 18:01 33.676260 -117.870861 205 60ft 0kts
08-Jan-18 18:02 33.676260 -117.870861 205 60ft 0kts
08-Jan-18 18:03 33.676260 -117.870861 205 60ft 0kts
08-Jan-18 18:04 33.676260 -117.870861 205 60ft 0kts
08-Jan-18 18:05 33.676260 -117.870861 205 60ft 0kts
08-Jan-18 18:06 33.676260 -117.870861 205 60ft 0kts
08-Jan-18 18:07 33.676260 -117.870861 205 60ft 0kts
08-Jan-18 18:08 33.676260 -117.870861 205 60ft 0kts
08-Jan-18 18:09 33.676260 -117.870861 205 60ft 0kts
08-Jan-18 18:10 33.676260 -117.870861 205 60ft 0kts
08-Jan-18 18:11 33.676260 -117.870861 205 60ft 0kts
08-Jan-18 18:12 33.676260 -117.870861 205 60ft 0kts
08-Jan-18 18:13 33.676260 -117.870861 205 60ft 0kts
08-Jan-18 18:14 33.676260 -117.870861 205 60ft 0kts
08-Jan-18 18:15 33.676260 -117.870861 205 60ft 0kts
08-Jan-18 18:16 33.676260 -117.870861 205 60ft 0kts
08-Jan-18 18:17 33.676260 -117.870861 206 60ft 0kts
08-Jan-18 18:18 33.675986 -117.870844 152 60ft 6kts
08-Jan-18 18:19 33.677444 -117.869218 20 60ft 8kts
08-Jan-18 18:20 33.679683 -117.867932 18 60ft 9kts
08-Jan-18 18:21 33.681270 -117.866570 100 60ft 4kts
08-Jan-18 18:22 33.681123 -117.866099 115 60ft 9kts
08-Jan-18 18:23 33.673181 -117.870696 213 287ft 73kts
08-Jan-18 18:24 33.651172 -117.878980 174 1465ft 67kts
08-Jan-18 18:25 33.631410 -117.882695 185 2398ft 77kts
08-Jan-18 18:26 33.612525 -117.886947 185 3132ft 89kts
08-Jan-18 18:27 33.582981 -117.894550 185 4101ft 96kts
08-Jan-18 18:28 33.568163 -117.880601 121 4774ft 84kts
08-Jan-18 18:29 33.554250 -117.853401 111 4986ft 106kts
08-Jan-18 18:30 33.541870 -117.821727 111 4979ft 104kts
08-Jan-18 18:31 33.529683 -117.790667 111 4980ft 102kts
08-Jan-18 18:32 33.517582 -117.759774 111 4980ft 102kts
08-Jan-18 18:33 33.506102 -117.728838 101 4981ft 101kts
08-Jan-18 18:34 33.500478 -117.695864 99 4982ft 101kts
08-Jan-18 18:35 33.485479 -117.668406 150 4984ft 108kts
08-Jan-18 18:36 33.456785 -117.656706 154 4982ft 109kts
08-Jan-18 18:37 33.428059 -117.645118 148 4980ft 107kts
08-Jan-18 18:38 33.403304 -117.626311 136 4982ft 104kts
08-Jan-18 18:39 33.381781 -117.603413 131 4982ft 103kts
08-Jan-18 18:40 33.364272 -117.577422 111 4982ft 100kts
08-Jan-18 18:41 33.347939 -117.550097 126 4984ft 102kts
08-Jan-18 18:42 33.328548 -117.525151 122 4982ft 101kts
08-Jan-18 18:43 33.323682 -117.492907 96 4986ft 99kts
08-Jan-18 18:44 33.320366 -117.460295 96 5007ft 99kts
08-Jan-18 18:45 33.317004 -117.426946 95 5007ft 101kts
08-Jan-18 18:46 33.313634 -117.393451 95 5008ft 101kts
08-Jan-18 18:47 33.310277 -117.360034 95 5009ft 101kts
08-Jan-18 18:48 33.307122 -117.326367 96 5008ft 102kts
08-Jan-18 18:49 33.304477 -117.292586 96 5007ft 102kts
08-Jan-18 18:50 33.302326 -117.258454 96 5006ft 103kts
08-Jan-18 18:51 33.300662 -117.224038 96 5005ft 104kts
08-Jan-18 18:52 33.299450 -117.189226 96 5004ft 105kts
08-Jan-18 18:53 33.298647 -117.153980 96 5003ft 106kts
08-Jan-18 18:54 33.298199 -117.118293 96 5001ft 108kts
08-Jan-18 18:55 33.297852 -117.082386 96 5006ft 108kts
08-Jan-18 18:56 33.313924 -117.051078 72 5009ft 113kts
08-Jan-18 18:57 33.296786 -117.029637 161 5019ft 105kts
08-Jan-18 18:58 33.268290 -117.021348 166 4903ft 103kts
08-Jan-18 18:59 33.241850 -117.015873 166 4374ft 95kts
08-Jan-18 19:00 33.215531 -117.010456 166 3876ft 97kts
08-Jan-18 19:01 33.192037 -117.023254 221 3514ft 100kts
08-Jan-18 19:02 33.173433 -117.047476 221 3515ft 99kts
08-Jan-18 19:03 33.160352 -117.075978 253 3541ft 97kts
08-Jan-18 19:04 33.155036 -117.109052 254 3089ft 102kts
08-Jan-18 19:05 33.149760 -117.142100 255 2574ft 100kts
08-Jan-18 19:06 33.144537 -117.174714 256 2043ft 99kts
08-Jan-18 19:07 33.139339 -117.207129 256 1497ft 99kts
08-Jan-18 19:08 33.135619 -117.234379 257 1270ft 76kts
08-Jan-18 19:09 33.132031 -117.257738 255 656ft 64kts
08-Jan-18 19:10 33.128592 -117.276863 258 335ft 43kts
08-Jan-18 19:11 33.128971 -117.280157 317 335ft 0kts
08-Jan-18 19:12 33.129022 -117.280208 330 335ft 3kts
08-Jan-18 19:13 33.129471 -117.277726 71 335ft 10kts
08-Jan-18 19:14 33.129662 -117.277273 165 335ft 0kts

Navigation Log

Ident Type
1. KSNA Airport
2. OCN Navaid
3. KCRQ Airport